createdAt,value
2022-12-06T00:01:28.991Z,17.10
2022-12-06T00:03:58.891Z,18.70
2022-12-06T00:06:29.566Z,15.80
2022-12-06T00:09:00.319Z,13.90
2022-12-06T00:11:29.941Z,15.57
2022-12-06T00:14:00.723Z,14.87
2022-12-06T00:16:31.649Z,14.73
2022-12-06T00:19:01.673Z,15.03
2022-12-06T00:21:30.881Z,15.13
2022-12-06T00:24:00.651Z,16.57
2022-12-06T00:26:29.729Z,15.23
2022-12-06T00:29:00.438Z,15.13
2022-12-06T00:31:29.672Z,19.00
2022-12-06T00:33:57.368Z,17.53
2022-12-06T00:36:26.662Z,16.60
2022-12-06T00:38:56.662Z,19.57
2022-12-06T00:41:25.473Z,16.23
2022-12-06T00:43:53.694Z,16.53
2022-12-06T00:46:24.714Z,15.13
2022-12-06T00:48:53.476Z,15.63
2022-12-06T00:51:22.682Z,15.77
2022-12-06T00:53:50.745Z,16.87
2022-12-06T00:56:19.308Z,16.93
2022-12-06T00:58:46.943Z,16.73
2022-12-06T01:01:16.705Z,17.43
2022-12-06T01:03:46.338Z,15.90
2022-12-06T01:06:16.491Z,17.03
2022-12-06T01:08:44.419Z,17.37
2022-12-06T01:11:14.234Z,16.73
2022-12-06T01:13:41.780Z,18.33
2022-12-06T01:16:11.643Z,18.07
2022-12-06T01:18:39.431Z,18.40
2022-12-06T01:21:09.341Z,17.77
2022-12-06T01:23:37.298Z,17.10
2022-12-06T01:26:05.548Z,16.70
2022-12-06T01:28:33.503Z,17.40
2022-12-06T01:31:01.054Z,15.57
2022-12-06T01:33:28.514Z,16.73
2022-12-06T01:35:55.916Z,16.43
2022-12-06T01:38:24.983Z,16.63
2022-12-06T01:40:52.476Z,16.37
2022-12-06T01:43:42.272Z,16.73
2022-12-06T01:46:22.579Z,16.23
2022-12-06T01:48:54.597Z,16.90
2022-12-06T01:51:22.703Z,17.13
2022-12-06T01:53:54.779Z,14.83
2022-12-06T01:56:22.774Z,15.20
2022-12-06T01:58:53.561Z,15.57
2022-12-06T02:01:21.167Z,13.43
2022-12-06T02:03:49.246Z,13.70
2022-12-06T02:06:17.606Z,11.87
2022-12-06T02:08:45.846Z,13.70
2022-12-06T02:11:14.598Z,12.70
2022-12-06T02:13:42.462Z,13.50
2022-12-06T02:16:23.148Z,12.43
2022-12-06T02:18:57.198Z,12.73
2022-12-06T02:21:35.531Z,12.73
2022-12-06T02:24:36.286Z,13.23
2022-12-06T02:27:27.079Z,13.47
2022-12-06T02:30:08.955Z,14.73
2022-12-06T02:32:49.173Z,16.20
2022-12-06T02:35:30.629Z,17.23
2022-12-06T02:38:06.646Z,17.47
2022-12-06T02:40:39.862Z,17.83
2022-12-06T02:43:12.527Z,18.73
2022-12-06T02:45:44.955Z,18.83
2022-12-06T02:48:15.322Z,18.73
2022-12-06T02:50:47.511Z,18.70
2022-12-06T02:53:22.282Z,17.20
2022-12-06T02:55:52.039Z,19.70
2022-12-06T02:58:19.494Z,19.50
2022-12-06T03:00:47.863Z,18.93
2022-12-06T03:03:29.235Z,19.47
2022-12-06T03:06:16.220Z,19.00
2022-12-06T03:08:54.210Z,19.80
2022-12-06T03:11:22.325Z,20.03
2022-12-06T03:13:59.556Z,20.33
2022-12-06T03:16:30.143Z,19.57
2022-12-06T03:19:01.916Z,21.90
2022-12-06T03:21:33.530Z,19.83
2022-12-06T03:24:01.422Z,20.07
2022-12-06T03:26:33.147Z,18.03
2022-12-06T03:29:02.561Z,16.67
2022-12-06T03:31:33.233Z,15.40
2022-12-06T03:34:07.576Z,13.87
2022-12-06T03:36:35.614Z,12.03
2022-12-06T03:39:05.978Z,11.90
2022-12-06T03:41:38.932Z,10.83
2022-12-06T03:44:06.426Z,10.70
2022-12-06T03:46:37.614Z,12.00
2022-12-06T03:49:12.435Z,11.57
2022-12-06T03:51:41.818Z,10.80
2022-12-06T03:54:10.221Z,11.77
2022-12-06T03:56:38.712Z,11.77
2022-12-06T03:59:07.269Z,11.57
2022-12-06T04:01:34.961Z,12.07
2022-12-06T04:04:02.710Z,12.93
2022-12-06T04:06:31.694Z,11.30
2022-12-06T04:09:19.779Z,10.83
2022-12-06T04:11:47.504Z,11.63
2022-12-06T04:14:15.517Z,11.70
2022-12-06T04:17:00.317Z,11.20
2022-12-06T04:19:27.952Z,11.90
2022-12-06T04:22:14.583Z,11.07
2022-12-06T04:24:42.249Z,12.47
2022-12-06T04:27:27.380Z,12.67
2022-12-06T04:30:12.527Z,11.40
2022-12-06T04:32:57.435Z,12.23
2022-12-06T04:35:42.207Z,13.63
2022-12-06T04:38:28.829Z,12.00
2022-12-06T04:40:56.225Z,11.33
2022-12-06T04:43:41.021Z,12.30
2022-12-06T04:46:08.633Z,12.10
2022-12-06T04:48:36.043Z,11.63
2022-12-06T04:51:03.548Z,11.83
2022-12-06T04:53:32.491Z,11.83
2022-12-06T04:55:59.905Z,11.40
2022-12-06T04:58:27.704Z,10.20
2022-12-06T05:00:56.048Z,10.23
2022-12-06T05:03:23.522Z,10.03
2022-12-06T05:05:50.944Z,10.27
2022-12-06T05:08:18.444Z,10.30
2022-12-06T05:10:49.494Z,8.67
2022-12-06T05:13:18.112Z,8.77
2022-12-06T05:15:51.374Z,9.50
2022-12-06T05:18:19.401Z,9.40
2022-12-06T05:20:47.006Z,8.83
2022-12-06T05:23:14.793Z,11.37
2022-12-06T05:25:42.481Z,9.63
2022-12-06T05:28:11.597Z,9.70
2022-12-06T05:30:39.062Z,8.77
2022-12-06T05:33:06.477Z,8.87
2022-12-06T05:35:33.863Z,8.50
2022-12-06T05:38:01.306Z,7.87
2022-12-06T05:40:28.695Z,7.90
2022-12-06T05:42:56.083Z,8.90
2022-12-06T05:45:24.856Z,8.67
2022-12-06T05:47:52.261Z,9.40
2022-12-06T05:50:19.626Z,10.43
2022-12-06T05:52:47.426Z,10.60
2022-12-06T05:55:14.855Z,9.93
2022-12-06T05:57:47.119Z,10.50
2022-12-06T06:00:16.210Z,10.27
2022-12-06T06:02:45.138Z,10.40
2022-12-06T06:05:12.875Z,10.57
2022-12-06T06:07:40.327Z,9.63
2022-12-06T06:10:08.787Z,9.03
2022-12-06T06:12:36.265Z,8.20
2022-12-06T06:15:07.031Z,8.63
2022-12-06T06:17:35.114Z,8.53
2022-12-06T06:20:06.193Z,8.33
2022-12-06T06:22:34.640Z,9.77
2022-12-06T06:25:02.705Z,9.37
2022-12-06T06:27:33.558Z,10.37
2022-12-06T06:30:01.282Z,10.60
2022-12-06T06:32:28.952Z,8.97
2022-12-06T06:34:56.341Z,10.23
2022-12-06T06:37:25.086Z,11.83
2022-12-06T06:39:52.515Z,9.90
2022-12-06T06:42:20.084Z,10.00
2022-12-06T06:44:47.531Z,10.67
2022-12-06T06:47:15.012Z,9.63
2022-12-06T06:49:42.432Z,9.53
2022-12-06T06:52:09.833Z,8.80
2022-12-06T06:54:38.668Z,9.97
2022-12-06T06:57:06.309Z,9.00
2022-12-06T06:59:34.003Z,9.90
2022-12-06T07:02:01.612Z,10.57
2022-12-06T07:04:29.497Z,10.80
2022-12-06T07:06:56.889Z,11.17
2022-12-06T07:09:24.265Z,10.03
2022-12-06T07:11:54.570Z,9.63
2022-12-06T07:14:22.077Z,10.83
2022-12-06T07:16:49.525Z,10.30
2022-12-06T07:19:17.128Z,9.87
2022-12-06T07:21:44.495Z,9.00
2022-12-06T07:24:11.893Z,9.57
2022-12-06T07:26:39.532Z,8.27
2022-12-06T07:29:08.390Z,9.73
2022-12-06T07:31:35.914Z,9.27
2022-12-06T07:34:04.039Z,8.97
2022-12-06T07:36:33.225Z,8.63
2022-12-06T07:39:01.524Z,9.20
2022-12-06T07:41:48.527Z,8.33
2022-12-06T07:44:36.058Z,9.07
2022-12-06T07:47:04.183Z,8.93
2022-12-06T07:49:32.077Z,9.10
2022-12-06T07:51:59.530Z,9.23
2022-12-06T07:54:27.270Z,8.87
2022-12-06T07:56:56.166Z,8.77
2022-12-06T07:59:25.973Z,7.87
2022-12-06T08:01:54.295Z,8.03
2022-12-06T08:04:22.762Z,8.13
2022-12-06T08:06:50.433Z,8.93
2022-12-06T08:09:18.889Z,8.87
2022-12-06T08:11:46.389Z,8.50
2022-12-06T08:14:16.064Z,8.53
2022-12-06T08:16:44.786Z,9.03
2022-12-06T08:19:12.169Z,8.83
2022-12-06T08:21:39.727Z,10.03
2022-12-06T08:24:07.535Z,8.87
2022-12-06T08:26:35.593Z,8.83
2022-12-06T08:29:03.526Z,9.07
2022-12-06T08:31:34.642Z,9.17
2022-12-06T08:34:04.544Z,8.67
2022-12-06T08:36:32.215Z,8.87
2022-12-06T08:39:00.771Z,7.43
2022-12-06T08:41:45.770Z,7.90
2022-12-06T08:44:15.353Z,8.93
2022-12-06T08:46:43.275Z,8.67
2022-12-06T08:49:13.597Z,10.13
2022-12-06T08:51:44.519Z,11.73
2022-12-06T08:54:15.023Z,9.00
2022-12-06T08:56:42.461Z,7.83
2022-12-06T08:59:10.008Z,7.03
2022-12-06T09:01:38.620Z,6.47
2022-12-06T09:04:09.553Z,7.40
2022-12-06T09:06:40.520Z,6.13
2022-12-06T09:09:09.561Z,6.90
2022-12-06T09:11:37.414Z,6.10
2022-12-06T09:14:05.402Z,6.80
2022-12-06T09:16:32.895Z,6.33
2022-12-06T09:19:00.349Z,6.03
2022-12-06T09:21:30.444Z,6.60
2022-12-06T09:23:59.522Z,6.80
2022-12-06T09:26:27.817Z,7.20
2022-12-06T09:28:56.794Z,6.47
2022-12-06T09:31:25.268Z,6.80
2022-12-06T09:33:53.511Z,7.07
2022-12-06T09:36:23.473Z,7.03
2022-12-06T09:38:55.530Z,6.40
2022-12-06T09:41:44.130Z,5.97
2022-12-06T09:44:28.829Z,6.07
2022-12-06T09:47:10.459Z,5.63
2022-12-06T09:49:48.247Z,6.17
2022-12-06T09:52:33.404Z,6.27
2022-12-06T09:55:19.878Z,6.50
2022-12-06T09:57:56.027Z,6.03
2022-12-06T10:00:24.724Z,7.27
2022-12-06T10:03:26.916Z,7.13
2022-12-06T10:06:02.754Z,7.20
2022-12-06T10:08:44.699Z,7.17
2022-12-06T10:11:22.558Z,7.30
2022-12-06T10:14:03.450Z,7.27
2022-12-06T10:16:45.727Z,8.13
2022-12-06T10:19:24.398Z,7.77
2022-12-06T10:22:05.892Z,8.00
2022-12-06T10:24:49.628Z,8.13
2022-12-06T10:27:23.693Z,8.57
2022-12-06T10:29:58.012Z,8.80
2022-12-06T10:32:40.076Z,7.90
2022-12-06T10:35:17.573Z,8.63
2022-12-06T10:37:58.008Z,8.87
2022-12-06T10:40:30.415Z,8.17
2022-12-06T10:43:04.478Z,8.70
2022-12-06T10:45:55.567Z,9.23
2022-12-06T10:48:30.156Z,7.93
2022-12-06T10:51:04.252Z,8.03
2022-12-06T10:53:38.790Z,8.70
2022-12-06T10:56:14.618Z,8.93
2022-12-06T10:58:46.448Z,8.67
2022-12-06T11:01:20.245Z,9.97
2022-12-06T11:03:56.643Z,9.30
2022-12-06T11:06:33.162Z,10.37
2022-12-06T11:09:06.531Z,9.57
2022-12-06T11:11:37.741Z,9.33
2022-12-06T11:14:12.395Z,10.50
2022-12-06T11:16:45.973Z,10.20
2022-12-06T11:19:23.820Z,9.27
2022-12-06T11:21:57.916Z,9.33
2022-12-06T11:24:29.898Z,8.90
2022-12-06T11:27:02.527Z,7.97
2022-12-06T11:29:31.047Z,8.97
2022-12-06T11:32:02.849Z,8.00
2022-12-06T11:34:33.755Z,8.13
2022-12-06T11:37:03.716Z,8.53
2022-12-06T11:39:32.464Z,9.40
2022-12-06T11:42:04.316Z,8.87
2022-12-06T11:44:44.932Z,9.73
2022-12-06T11:47:19.896Z,8.57
2022-12-06T11:49:48.272Z,8.47
2022-12-06T11:52:19.020Z,8.10
2022-12-06T11:54:52.669Z,8.30
2022-12-06T11:57:23.701Z,8.03
2022-12-06T12:00:11.931Z,8.13
2022-12-06T12:02:41.738Z,6.47
2022-12-06T12:05:11.017Z,6.43
2022-12-06T12:07:42.251Z,6.90
2022-12-06T12:10:31.541Z,5.73
2022-12-06T12:13:33.455Z,7.20
2022-12-06T12:16:06.715Z,6.90
2022-12-06T12:18:37.811Z,6.83
2022-12-06T12:21:08.171Z,6.30
2022-12-06T12:23:38.330Z,6.03
2022-12-06T12:26:13.450Z,6.63
2022-12-06T12:28:41.537Z,6.13
2022-12-06T12:31:19.522Z,6.13
2022-12-06T12:33:48.774Z,6.00
2022-12-06T12:36:21.621Z,6.43
2022-12-06T12:38:56.655Z,6.63
2022-12-06T12:41:30.130Z,7.20
2022-12-06T12:44:35.931Z,5.60
2022-12-06T12:46:53.240Z,4.70
2022-12-06T12:49:29.416Z,5.47
2022-12-06T12:51:57.667Z,4.97
2022-12-06T12:54:29.401Z,5.27
2022-12-06T12:56:58.190Z,4.80
2022-12-06T12:59:28.327Z,5.03
2022-12-06T13:02:02.840Z,4.93
2022-12-06T13:04:42.249Z,5.03
2022-12-06T13:07:18.158Z,4.70
2022-12-06T13:09:52.570Z,4.70
2022-12-06T13:12:24.706Z,4.77
2022-12-06T13:14:58.508Z,4.80
2022-12-06T13:17:28.293Z,5.07
2022-12-06T13:19:57.124Z,5.27
2022-12-06T13:22:27.833Z,4.57
2022-12-06T13:25:01.618Z,5.33
2022-12-06T13:27:33.555Z,5.57
2022-12-06T13:30:05.499Z,5.73
2022-12-06T13:32:38.620Z,6.20
2022-12-06T13:35:19.032Z,6.30
2022-12-06T13:37:52.483Z,5.60
2022-12-06T13:40:49.069Z,6.03
2022-12-06T13:43:56.733Z,6.23
2022-12-06T13:46:27.483Z,6.27
2022-12-06T13:48:56.700Z,6.07
2022-12-06T13:51:45.870Z,6.17
2022-12-06T13:54:37.410Z,6.03
2022-12-06T13:57:25.331Z,6.53
2022-12-06T13:59:53.549Z,5.93
2022-12-06T14:02:51.283Z,6.10
2022-12-06T14:08:30.855Z,6.00
2022-12-06T14:11:17.859Z,6.97
2022-12-06T14:13:47.342Z,6.20
2022-12-06T14:16:22.773Z,6.47
2022-12-06T14:18:51.331Z,6.10
2022-12-06T14:21:27.203Z,5.90
2022-12-06T14:23:56.027Z,6.10
2022-12-06T14:26:26.362Z,6.90
2022-12-06T14:28:56.381Z,7.37
2022-12-06T14:31:27.490Z,7.33
2022-12-06T14:33:56.397Z,6.73
2022-12-06T14:36:27.582Z,6.70
2022-12-06T14:39:01.310Z,6.73
2022-12-06T14:41:52.660Z,7.10
2022-12-06T14:44:21.672Z,6.87
2022-12-06T14:46:50.467Z,6.97
2022-12-06T14:49:38.412Z,6.27
2022-12-06T14:52:20.098Z,7.00
2022-12-06T14:54:51.876Z,7.17
2022-12-06T14:57:24.872Z,7.37
2022-12-06T15:00:16.212Z,7.17
2022-12-06T15:03:07.203Z,7.13
2022-12-06T15:05:36.979Z,7.23
2022-12-06T15:08:32.174Z,7.63
2022-12-06T15:11:02.841Z,7.03
2022-12-06T15:13:30.042Z,7.23
2022-12-06T15:16:12.623Z,7.00
2022-12-06T15:18:41.810Z,7.73
2022-12-06T15:21:12.776Z,7.03
2022-12-06T15:23:43.068Z,7.90
2022-12-06T15:26:13.187Z,7.90
2022-12-06T15:28:40.946Z,7.37
2022-12-06T15:31:16.987Z,7.53
2022-12-06T15:33:44.911Z,7.73
2022-12-06T15:36:17.131Z,7.67
2022-12-06T15:38:44.868Z,8.00
2022-12-06T15:41:17.778Z,7.33
2022-12-06T15:43:46.078Z,7.50
2022-12-06T15:46:19.286Z,6.30
2022-12-06T15:48:47.102Z,7.00
2022-12-06T15:51:20.390Z,6.83
2022-12-06T15:53:49.909Z,6.53
2022-12-06T15:56:20.686Z,5.87
2022-12-06T15:58:48.528Z,7.17
2022-12-06T16:01:18.421Z,7.07
2022-12-06T16:03:47.276Z,7.53
2022-12-06T16:06:16.221Z,7.07
2022-12-06T16:08:44.262Z,7.60
2022-12-06T16:11:13.986Z,7.60
2022-12-06T16:13:42.929Z,8.20
2022-12-06T16:16:11.320Z,8.00
2022-12-06T16:18:38.954Z,8.53
2022-12-06T16:21:07.027Z,8.63
2022-12-06T16:26:41.793Z,8.80
2022-12-06T16:29:13.721Z,8.83
2022-12-06T16:31:41.881Z,9.70
2022-12-06T16:34:10.101Z,9.37
2022-12-06T16:36:55.587Z,8.90
2022-12-06T16:39:23.139Z,8.70
2022-12-06T16:41:50.576Z,8.83
2022-12-06T16:44:19.370Z,7.77
2022-12-06T16:46:46.866Z,8.00
2022-12-06T16:49:44.683Z,7.47
2022-12-06T16:52:05.310Z,7.30
2022-12-06T16:54:32.767Z,7.40
2022-12-06T16:57:00.283Z,7.03
2022-12-06T16:59:29.055Z,7.23
2022-12-06T17:01:56.663Z,7.10
2022-12-06T17:04:25.989Z,5.90
2022-12-06T17:06:53.395Z,6.67
2022-12-06T17:09:20.789Z,5.87
2022-12-06T17:12:02.231Z,6.27
2022-12-06T17:14:31.215Z,5.73
2022-12-06T17:17:03.627Z,6.23
2022-12-06T17:19:32.113Z,5.93
2022-12-06T17:22:02.006Z,7.40
2022-12-06T17:24:29.738Z,5.73
2022-12-06T17:26:58.942Z,5.87
2022-12-06T17:29:26.819Z,6.43
2022-12-06T17:31:56.293Z,5.90
2022-12-06T17:34:25.750Z,6.20
2022-12-06T17:36:53.933Z,6.40
2022-12-06T17:39:22.216Z,6.70
2022-12-06T17:42:07.495Z,7.13
2022-12-06T17:44:35.212Z,6.60
2022-12-06T17:47:04.019Z,6.97
2022-12-06T17:49:31.477Z,7.10
2022-12-06T17:51:59.044Z,8.00
2022-12-06T17:54:26.448Z,7.77
2022-12-06T17:56:55.883Z,7.93
2022-12-06T17:59:25.743Z,9.30
2022-12-06T18:04:44.322Z,8.80
2022-12-06T18:07:12.608Z,9.63
2022-12-06T18:09:40.535Z,9.87
2022-12-06T18:12:11.993Z,10.33
2022-12-06T18:14:39.498Z,9.87
2022-12-06T18:17:07.035Z,11.07
2022-12-06T18:19:34.942Z,11.00
2022-12-06T18:22:03.760Z,10.80
2022-12-06T18:24:35.951Z,11.80
2022-12-06T18:27:04.655Z,10.80
2022-12-06T18:29:32.310Z,12.10
2022-12-06T18:31:59.944Z,12.13
2022-12-06T18:34:27.473Z,10.63
2022-12-06T18:36:54.896Z,11.87
2022-12-06T18:39:25.221Z,12.30
2022-12-06T18:41:53.838Z,11.53
2022-12-06T18:44:21.671Z,11.87
2022-12-06T18:46:49.105Z,11.50
2022-12-06T18:49:16.586Z,11.90
2022-12-06T18:51:44.036Z,11.83
2022-12-06T18:54:14.643Z,12.13
2022-12-06T18:56:43.803Z,11.97
2022-12-06T18:59:12.060Z,11.57
2022-12-06T19:01:40.765Z,12.17
2022-12-06T19:04:11.429Z,12.27
2022-12-06T19:06:39.260Z,11.80
2022-12-06T19:09:12.505Z,13.83
2022-12-06T19:11:44.429Z,13.10
2022-12-06T19:14:11.907Z,12.37
2022-12-06T19:16:42.100Z,11.23
2022-12-06T19:19:16.481Z,11.60
2022-12-06T19:21:45.214Z,12.70
2022-12-06T19:24:15.503Z,12.97
2022-12-06T19:26:45.408Z,13.80
2022-12-06T19:29:13.704Z,13.43
2022-12-06T19:31:41.265Z,13.17
2022-12-06T19:34:15.081Z,14.17
2022-12-06T19:36:42.627Z,13.00
2022-12-06T19:39:11.761Z,12.63
2022-12-06T19:41:59.233Z,12.30
2022-12-06T19:44:27.320Z,12.17
2022-12-06T19:46:54.771Z,12.47
2022-12-06T19:49:24.204Z,13.70
2022-12-06T19:51:52.972Z,13.50
2022-12-06T19:54:22.997Z,12.40
2022-12-06T19:56:51.177Z,13.57
2022-12-06T19:59:18.613Z,13.27
2022-12-06T20:01:48.729Z,13.57
2022-12-06T20:04:19.803Z,14.70
2022-12-06T20:06:47.499Z,13.23
2022-12-06T20:09:15.522Z,14.50
2022-12-06T20:12:02.251Z,6.97
2022-12-06T20:14:33.524Z,7.40
2022-12-06T20:17:02.722Z,5.93
2022-12-06T20:19:30.312Z,7.77
2022-12-06T20:21:57.759Z,5.83
2022-12-06T20:24:25.214Z,5.87
2022-12-06T20:26:54.163Z,5.93
2022-12-06T20:29:22.571Z,5.33
2022-12-06T20:31:51.237Z,6.20
2022-12-06T20:34:22.376Z,6.30
2022-12-06T20:36:49.816Z,7.73
2022-12-06T20:39:23.300Z,7.07
2022-12-06T20:41:51.747Z,6.87
2022-12-06T20:44:20.130Z,9.60
2022-12-06T20:46:49.535Z,10.07
2022-12-06T20:49:19.623Z,10.67
2022-12-06T20:51:52.925Z,9.77
2022-12-06T20:54:21.367Z,11.43
2022-12-06T20:56:51.590Z,11.33
2022-12-06T20:59:21.267Z,10.57
2022-12-06T21:01:48.850Z,10.70
2022-12-06T21:04:16.798Z,9.90
2022-12-06T21:06:44.391Z,10.57
2022-12-06T21:09:13.210Z,9.30
2022-12-06T21:11:40.718Z,9.30
2022-12-06T21:14:08.097Z,9.57
2022-12-06T21:16:38.077Z,7.93
2022-12-06T21:19:07.518Z,8.30
2022-12-06T21:21:36.873Z,9.67
2022-12-06T21:24:07.221Z,10.20
2022-12-06T21:26:36.933Z,9.73
2022-12-06T21:29:04.760Z,8.30
2022-12-06T21:31:34.532Z,9.37
2022-12-06T21:34:03.235Z,8.30
2022-12-06T21:36:31.214Z,7.10
2022-12-06T21:38:59.405Z,6.40
2022-12-06T21:41:27.341Z,6.67
2022-12-06T21:43:56.290Z,5.00
2022-12-06T21:46:25.194Z,4.63
2022-12-06T21:48:53.629Z,4.63
2022-12-06T21:51:21.304Z,4.53
2022-12-06T21:53:48.809Z,4.30
2022-12-06T21:56:18.929Z,3.60
2022-12-06T21:58:46.699Z,4.40
2022-12-06T22:01:18.193Z,4.40
2022-12-06T22:03:48.395Z,4.20
2022-12-06T22:06:16.191Z,4.07
2022-12-06T22:08:45.134Z,3.73
2022-12-06T22:11:16.945Z,3.33
2022-12-06T22:13:45.537Z,3.60
2022-12-06T22:16:14.930Z,3.60
2022-12-06T22:18:45.963Z,3.23
2022-12-06T22:21:16.076Z,3.43
2022-12-06T22:23:43.753Z,3.80
2022-12-06T22:26:15.257Z,3.63
2022-12-06T22:28:42.797Z,3.50
2022-12-06T22:31:11.659Z,3.70
2022-12-06T22:33:40.979Z,4.13
2022-12-06T22:36:09.460Z,4.70
2022-12-06T22:38:37.446Z,4.07
2022-12-06T22:41:05.546Z,5.40
2022-12-06T22:43:33.862Z,5.17
2022-12-06T22:46:04.803Z,5.33
2022-12-06T22:48:32.239Z,5.33
2022-12-06T22:51:13.294Z,6.47
2022-12-06T22:53:41.828Z,7.30
2022-12-06T22:56:10.172Z,8.03
2022-12-06T22:58:38.436Z,10.60
2022-12-06T23:01:16.095Z,11.50
2022-12-06T23:03:44.969Z,13.27
2022-12-06T23:06:14.657Z,14.00
2022-12-06T23:08:42.916Z,12.57
2022-12-06T23:11:12.903Z,14.17
2022-12-06T23:13:41.020Z,12.90
2022-12-06T23:16:11.685Z,13.10
2022-12-06T23:18:39.182Z,13.70
2022-12-06T23:21:09.134Z,12.43
2022-12-06T23:23:39.159Z,12.73
2022-12-06T23:26:08.759Z,11.63
2022-12-06T23:28:36.859Z,12.00
2022-12-06T23:31:05.568Z,11.97
2022-12-06T23:33:33.466Z,11.40
2022-12-06T23:36:06.297Z,11.03
2022-12-06T23:38:33.778Z,11.07
2022-12-06T23:41:07.502Z,9.50
2022-12-06T23:43:44.887Z,10.53
2022-12-06T23:46:27.405Z,9.60
2022-12-06T23:49:10.700Z,10.30
2022-12-06T23:52:21.369Z,10.33
2022-12-06T23:55:06.996Z,10.10
2022-12-06T23:58:16.956Z,9.57
